Terminal Aerodrome Forecast
Issued by NWS

Home | Current Version | Previous Version | Graphics & Text | Print | Product List | Glossary On
Versions: 1 2 3 4 5 6 7 8 9 10 11 12 13 14 15 16 17 18 19
000
FTUS43 KGRB 040934 AAA
TAFATW
TAF AMD
KATW 040934Z 0410/0506 VRB02KT P6SM SCT004 BKN006
      TEMPO 0410/0412 3SM BR BKN004
     FM041500 06005KT P6SM BKN015
     FM041700 08005KT P6SM SCT020 SCT035
     FM042100 14004KT P6SM SCT040
     FM050400 15003KT 5SM BR SKC=

USA.gov is the U.S. government's official web portal to all federal, state and local government web resources and services.